sensor_id;sensor_type;location;lat;lon;timestamp;P1;durP1;ratioP1;P2;durP2;ratioP2
68225;SDS011;55045;49.410;11.030;2023-09-19T00:00:35;2.72;;;1.92;;
68225;SDS011;55045;49.410;11.030;2023-09-19T00:03:38;1.95;;;1.85;;
68225;SDS011;55045;49.410;11.030;2023-09-19T00:06:45;4.55;;;2.05;;
68225;SDS011;55045;49.410;11.030;2023-09-19T00:09:49;3.15;;;2.17;;
68225;SDS011;55045;49.410;11.030;2023-09-19T00:12:54;3.30;;;1.95;;
68225;SDS011;55045;49.410;11.030;2023-09-19T00:15:58;5.18;;;2.00;;
68225;SDS011;55045;49.410;11.030;2023-09-19T00:19:01;4.00;;;2.35;;
68225;SDS011;55045;49.410;11.030;2023-09-19T00:22:10;3.60;;;2.00;;
68225;SDS011;55045;49.410;11.030;2023-09-19T00:25:14;2.63;;;2.03;;
68225;SDS011;55045;49.410;11.030;2023-09-19T00:28:20;3.42;;;2.10;;
68225;SDS011;55045;49.410;11.030;2023-09-19T00:31:23;3.17;;;1.80;;
68225;SDS011;55045;49.410;11.030;2023-09-19T00:34:29;1.75;;;1.63;;
68225;SDS011;55045;49.410;11.030;2023-09-19T00:37:36;2.73;;;1.90;;
68225;SDS011;55045;49.410;11.030;2023-09-19T00:40:43;2.38;;;1.90;;
68225;SDS011;55045;49.410;11.030;2023-09-19T00:43:48;2.95;;;1.67;;
68225;SDS011;55045;49.410;11.030;2023-09-19T00:46:53;3.38;;;2.22;;
68225;SDS011;55045;49.410;11.030;2023-09-19T00:49:57;4.82;;;2.10;;
68225;SDS011;55045;49.410;11.030;2023-09-19T00:53:01;3.13;;;2.13;;
68225;SDS011;55045;49.410;11.030;2023-09-19T00:56:09;4.78;;;2.08;;
68225;SDS011;55045;49.410;11.030;2023-09-19T00:59:14;4.32;;;2.00;;
68225;SDS011;55045;49.410;11.030;2023-09-19T01:02:18;5.07;;;2.58;;
68225;SDS011;55045;49.410;11.030;2023-09-19T01:05:23;3.45;;;2.15;;
68225;SDS011;55045;49.410;11.030;2023-09-19T01:08:27;3.03;;;2.20;;
68225;SDS011;55045;49.410;11.030;2023-09-19T01:11:33;3.50;;;2.70;;
68225;SDS011;55045;49.410;11.030;2023-09-19T01:14:44;2.97;;;2.63;;
68225;SDS011;55045;49.410;11.030;2023-09-19T01:18:00;4.15;;;2.08;;
68225;SDS011;55045;49.410;11.030;2023-09-19T01:21:11;2.97;;;2.20;;
68225;SDS011;55045;49.410;11.030;2023-09-19T01:24:34;6.05;;;2.40;;
68225;SDS011;55045;49.410;11.030;2023-09-19T01:28:06;2.83;;;2.25;;
68225;SDS011;55045;49.410;11.030;2023-09-19T01:31:25;3.50;;;2.58;;
68225;SDS011;55045;49.410;11.030;2023-09-19T01:34:45;6.18;;;2.63;;
68225;SDS011;55045;49.410;11.030;2023-09-19T01:37:50;7.38;;;2.95;;
68225;SDS011;55045;49.410;11.030;2023-09-19T01:41:05;2.78;;;2.30;;
68225;SDS011;55045;49.410;11.030;2023-09-19T01:44:17;2.95;;;2.55;;
68225;SDS011;55045;49.410;11.030;2023-09-19T01:47:28;4.05;;;2.60;;
68225;SDS011;55045;49.410;11.030;2023-09-19T01:50:38;4.80;;;2.75;;
68225;SDS011;55045;49.410;11.030;2023-09-19T01:53:50;5.20;;;2.17;;
68225;SDS011;55045;49.410;11.030;2023-09-19T01:56:59;3.83;;;2.22;;
68225;SDS011;55045;49.410;11.030;2023-09-19T02:00:11;3.55;;;2.42;;
68225;SDS011;55045;49.410;11.030;2023-09-19T02:03:17;4.45;;;2.35;;
68225;SDS011;55045;49.410;11.030;2023-09-19T02:06:20;3.70;;;2.55;;
68225;SDS011;55045;49.410;11.030;2023-09-19T02:09:26;2.60;;;2.13;;
68225;SDS011;55045;49.410;11.030;2023-09-19T02:12:29;6.32;;;2.40;;
68225;SDS011;55045;49.410;11.030;2023-09-19T02:15:37;4.45;;;2.40;;
68225;SDS011;55045;49.410;11.030;2023-09-19T02:18:41;5.63;;;2.40;;
68225;SDS011;55045;49.410;11.030;2023-09-19T02:21:44;4.20;;;1.88;;
68225;SDS011;55045;49.410;11.030;2023-09-19T02:24:48;3.58;;;2.20;;
68225;SDS011;55045;49.410;11.030;2023-09-19T02:27:52;3.63;;;2.38;;
68225;SDS011;55045;49.410;11.030;2023-09-19T02:30:58;3.08;;;2.53;;
68225;SDS011;55045;49.410;11.030;2023-09-19T02:34:03;5.63;;;2.50;;
68225;SDS011;55045;49.410;11.030;2023-09-19T02:37:08;3.67;;;1.77;;
68225;SDS011;55045;49.410;11.030;2023-09-19T02:40:12;5.28;;;2.60;;
68225;SDS011;55045;49.410;11.030;2023-09-19T02:43:21;2.67;;;2.00;;
68225;SDS011;55045;49.410;11.030;2023-09-19T02:46:29;6.25;;;2.10;;
68225;SDS011;55045;49.410;11.030;2023-09-19T02:49:34;2.75;;;2.10;;
68225;SDS011;55045;49.410;11.030;2023-09-19T02:52:38;3.13;;;2.15;;
68225;SDS011;55045;49.410;11.030;2023-09-19T02:55:41;3.13;;;1.73;;
68225;SDS011;55045;49.410;11.030;2023-09-19T02:58:48;3.65;;;2.03;;
68225;SDS011;55045;49.410;11.030;2023-09-19T03:01:51;2.72;;;1.70;;
68225;SDS011;55045;49.410;11.030;2023-09-19T03:04:58;4.57;;;2.10;;
68225;SDS011;55045;49.410;11.030;2023-09-19T03:08:02;4.15;;;1.80;;
68225;SDS011;55045;49.410;11.030;2023-09-19T03:11:06;3.10;;;1.80;;
68225;SDS011;55045;49.410;11.030;2023-09-19T03:14:14;1.95;;;1.60;;
68225;SDS011;55045;49.410;11.030;2023-09-19T03:17:18;3.10;;;1.80;;
68225;SDS011;55045;49.410;11.030;2023-09-19T03:20:24;2.75;;;1.55;;
68225;SDS011;55045;49.410;11.030;2023-09-19T03:23:29;5.28;;;1.60;;
68225;SDS011;55045;49.410;11.030;2023-09-19T03:26:33;4.43;;;1.60;;
68225;SDS011;55045;49.410;11.030;2023-09-19T03:29:37;1.58;;;1.48;;
68225;SDS011;55045;49.410;11.030;2023-09-19T03:34:16;1.90;;;1.45;;
68225;SDS011;55045;49.410;11.030;2023-09-19T03:37:20;1.60;;;1.50;;
68225;SDS011;55045;49.410;11.030;2023-09-19T03:40:24;1.77;;;1.45;;
68225;SDS011;55045;49.410;11.030;2023-09-19T03:43:28;3.28;;;1.70;;
68225;SDS011;55045;49.410;11.030;2023-09-19T03:46:31;2.53;;;1.52;;
68225;SDS011;55045;49.410;11.030;2023-09-19T03:49:36;2.25;;;1.52;;
68225;SDS011;55045;49.410;11.030;2023-09-19T03:52:39;2.97;;;1.77;;
68225;SDS011;55045;49.410;11.030;2023-09-19T03:55:44;2.05;;;1.60;;
68225;SDS011;55045;49.410;11.030;2023-09-19T03:58:48;2.45;;;1.70;;
68225;SDS011;55045;49.410;11.030;2023-09-19T04:01:52;1.60;;;1.50;;
68225;SDS011;55045;49.410;11.030;2023-09-19T04:05:00;2.83;;;1.70;;
68225;SDS011;55045;49.410;11.030;2023-09-19T04:08:04;2.03;;;1.40;;
68225;SDS011;55045;49.410;11.030;2023-09-19T04:11:07;3.25;;;2.42;;
68225;SDS011;55045;49.410;11.030;2023-09-19T04:14:11;5.30;;;2.70;;
68225;SDS011;55045;49.410;11.030;2023-09-19T04:17:14;3.33;;;2.78;;
68225;SDS011;55045;49.410;11.030;2023-09-19T04:20:19;2.60;;;2.33;;
68225;SDS011;55045;49.410;11.030;2023-09-19T04:23:25;3.67;;;3.00;;
68225;SDS011;55045;49.410;11.030;2023-09-19T04:26:28;5.57;;;4.15;;
68225;SDS011;55045;49.410;11.030;2023-09-19T04:29:31;5.35;;;4.10;;
68225;SDS011;55045;49.410;11.030;2023-09-19T04:32:34;4.88;;;3.65;;
68225;SDS011;55045;49.410;11.030;2023-09-19T04:35:41;4.03;;;3.00;;
68225;SDS011;55045;49.410;11.030;2023-09-19T04:38:45;3.45;;;2.15;;
68225;SDS011;55045;49.410;11.030;2023-09-19T04:41:49;2.92;;;1.98;;
68225;SDS011;55045;49.410;11.030;2023-09-19T04:44:52;3.05;;;2.20;;
68225;SDS011;55045;49.410;11.030;2023-09-19T04:47:56;8.05;;;3.90;;
68225;SDS011;55045;49.410;11.030;2023-09-19T04:51:01;4.07;;;3.47;;
68225;SDS011;55045;49.410;11.030;2023-09-19T04:54:05;2.90;;;1.95;;
68225;SDS011;55045;49.410;11.030;2023-09-19T04:57:09;4.22;;;2.47;;
68225;SDS011;55045;49.410;11.030;2023-09-19T05:00:13;4.78;;;2.42;;
68225;SDS011;55045;49.410;11.030;2023-09-19T05:03:18;2.90;;;2.05;;
68225;SDS011;55045;49.410;11.030;2023-09-19T05:06:24;2.45;;;1.80;;
68225;SDS011;55045;49.410;11.030;2023-09-19T05:09:28;3.25;;;1.85;;
68225;SDS011;55045;49.410;11.030;2023-09-19T05:12:32;4.63;;;2.15;;
68225;SDS011;55045;49.410;11.030;2023-09-19T05:15:37;6.60;;;2.58;;
68225;SDS011;55045;49.410;11.030;2023-09-19T05:18:42;2.55;;;1.60;;
68225;SDS011;55045;49.410;11.030;2023-09-19T05:21:49;2.95;;;1.92;;
68225;SDS011;55045;49.410;11.030;2023-09-19T05:24:53;5.18;;;2.05;;
68225;SDS011;55045;49.410;11.030;2023-09-19T05:27:57;3.03;;;1.80;;
68225;SDS011;55045;49.410;11.030;2023-09-19T05:31:00;3.80;;;1.63;;
68225;SDS011;55045;49.410;11.030;2023-09-19T05:34:05;2.55;;;2.22;;
68225;SDS011;55045;49.410;11.030;2023-09-19T05:37:09;5.30;;;2.10;;
68225;SDS011;55045;49.410;11.030;2023-09-19T05:40:13;3.13;;;1.83;;
68225;SDS011;55045;49.410;11.030;2023-09-19T05:43:18;4.95;;;1.85;;
68225;SDS011;55045;49.410;11.030;2023-09-19T05:46:21;3.72;;;2.63;;
68225;SDS011;55045;49.410;11.030;2023-09-19T05:49:24;2.10;;;1.90;;
68225;SDS011;55045;49.410;11.030;2023-09-19T05:52:29;5.75;;;2.00;;
68225;SDS011;55045;49.410;11.030;2023-09-19T05:55:32;2.38;;;1.73;;
68225;SDS011;55045;49.410;11.030;2023-09-19T05:58:36;1.92;;;1.70;;
68225;SDS011;55045;49.410;11.030;2023-09-19T06:01:40;2.47;;;1.90;;
68225;SDS011;55045;49.410;11.030;2023-09-19T06:04:44;3.08;;;1.80;;
68225;SDS011;55045;49.410;11.030;2023-09-19T06:07:48;2.05;;;1.85;;
68225;SDS011;55045;49.410;11.030;2023-09-19T06:10:52;3.95;;;1.80;;
68225;SDS011;55045;49.410;11.030;2023-09-19T06:13:56;2.70;;;2.05;;
68225;SDS011;55045;49.410;11.030;2023-09-19T06:17:00;4.13;;;1.95;;
68225;SDS011;55045;49.410;11.030;2023-09-19T06:20:04;3.15;;;2.00;;
68225;SDS011;55045;49.410;11.030;2023-09-19T06:23:13;3.50;;;1.92;;
68225;SDS011;55045;49.410;11.030;2023-09-19T06:26:17;2.55;;;2.17;;
68225;SDS011;55045;49.410;11.030;2023-09-19T06:29:20;2.60;;;2.17;;
68225;SDS011;55045;49.410;11.030;2023-09-19T06:32:26;2.53;;;1.70;;
68225;SDS011;55045;49.410;11.030;2023-09-19T06:35:31;2.40;;;2.00;;
68225;SDS011;55045;49.410;11.030;2023-09-19T06:38:37;3.25;;;1.90;;
68225;SDS011;55045;49.410;11.030;2023-09-19T06:41:47;3.05;;;2.38;;
68225;SDS011;55045;49.410;11.030;2023-09-19T06:44:52;2.92;;;2.00;;
68225;SDS011;55045;49.410;11.030;2023-09-19T06:47:55;4.50;;;2.42;;
68225;SDS011;55045;49.410;11.030;2023-09-19T06:51:00;4.10;;;2.20;;
68225;SDS011;55045;49.410;11.030;2023-09-19T06:54:08;3.08;;;2.38;;
68225;SDS011;55045;49.410;11.030;2023-09-19T06:57:11;3.08;;;1.60;;
68225;SDS011;55045;49.410;11.030;2023-09-19T07:00:16;3.58;;;2.22;;
68225;SDS011;55045;49.410;11.030;2023-09-19T07:03:20;2.50;;;2.25;;
68225;SDS011;55045;49.410;11.030;2023-09-19T07:06:27;4.20;;;2.40;;
68225;SDS011;55045;49.410;11.030;2023-09-19T07:09:32;2.67;;;2.40;;
68225;SDS011;55045;49.410;11.030;2023-09-19T07:12:35;3.88;;;2.47;;
68225;SDS011;55045;49.410;11.030;2023-09-19T07:15:38;2.72;;;2.20;;
68225;SDS011;55045;49.410;11.030;2023-09-19T07:18:48;5.80;;;2.63;;
68225;SDS011;55045;49.410;11.030;2023-09-19T07:21:51;4.35;;;2.53;;
68225;SDS011;55045;49.410;11.030;2023-09-19T07:24:57;3.10;;;2.20;;
68225;SDS011;55045;49.410;11.030;2023-09-19T07:28:00;3.13;;;1.90;;
68225;SDS011;55045;49.410;11.030;2023-09-19T07:31:04;2.95;;;2.00;;
68225;SDS011;55045;49.410;11.030;2023-09-19T07:34:09;2.70;;;2.20;;
68225;SDS011;55045;49.410;11.030;2023-09-19T07:37:12;4.50;;;2.33;;
68225;SDS011;55045;49.410;11.030;2023-09-19T07:40:20;4.85;;;2.00;;
68225;SDS011;55045;49.410;11.030;2023-09-19T07:43:23;3.65;;;1.98;;
68225;SDS011;55045;49.410;11.030;2023-09-19T07:46:27;2.50;;;2.08;;
68225;SDS011;55045;49.410;11.030;2023-09-19T07:49:31;3.50;;;2.20;;
68225;SDS011;55045;49.410;11.030;2023-09-19T07:52:35;3.90;;;2.40;;
68225;SDS011;55045;49.410;11.030;2023-09-19T07:55:40;2.75;;;2.00;;
68225;SDS011;55045;49.410;11.030;2023-09-19T07:58:44;2.60;;;1.98;;
68225;SDS011;55045;49.410;11.030;2023-09-19T08:01:47;5.95;;;2.33;;
68225;SDS011;55045;49.410;11.030;2023-09-19T08:04:51;3.28;;;2.03;;
68225;SDS011;55045;49.410;11.030;2023-09-19T08:07:54;3.45;;;1.98;;
68225;SDS011;55045;49.410;11.030;2023-09-19T08:11:03;4.13;;;2.25;;
68225;SDS011;55045;49.410;11.030;2023-09-19T08:14:12;2.92;;;1.90;;
68225;SDS011;55045;49.410;11.030;2023-09-19T08:17:16;2.25;;;1.85;;
68225;SDS011;55045;49.410;11.030;2023-09-19T08:20:21;2.60;;;2.00;;
68225;SDS011;55045;49.410;11.030;2023-09-19T08:23:24;3.67;;;2.30;;
68225;SDS011;55045;49.410;11.030;2023-09-19T08:26:30;2.30;;;2.10;;
68225;SDS011;55045;49.410;11.030;2023-09-19T08:29:33;2.38;;;2.17;;
68225;SDS011;55045;49.410;11.030;2023-09-19T08:32:36;2.90;;;1.90;;
68225;SDS011;55045;49.410;11.030;2023-09-19T08:35:43;4.78;;;2.08;;
68225;SDS011;55045;49.410;11.030;2023-09-19T08:38:47;3.40;;;2.00;;
68225;SDS011;55045;49.410;11.030;2023-09-19T08:41:58;4.07;;;2.03;;
68225;SDS011;55045;49.410;11.030;2023-09-19T08:45:01;6.07;;;2.13;;
68225;SDS011;55045;49.410;11.030;2023-09-19T08:48:21;2.17;;;1.88;;
68225;SDS011;55045;49.410;11.030;2023-09-19T08:51:29;2.95;;;2.20;;
68225;SDS011;55045;49.410;11.030;2023-09-19T08:54:37;4.97;;;2.15;;
68225;SDS011;55045;49.410;11.030;2023-09-19T08:57:44;2.88;;;2.10;;
68225;SDS011;55045;49.410;11.030;2023-09-19T09:00:51;1.95;;;1.85;;
68225;SDS011;55045;49.410;11.030;2023-09-19T09:03:56;4.13;;;2.15;;
68225;SDS011;55045;49.410;11.030;2023-09-19T09:07:01;2.55;;;1.90;;
68225;SDS011;55045;49.410;11.030;2023-09-19T09:10:06;2.15;;;2.00;;
68225;SDS011;55045;49.410;11.030;2023-09-19T09:13:11;6.28;;;2.17;;
68225;SDS011;55045;49.410;11.030;2023-09-19T09:16:16;2.65;;;1.75;;
68225;SDS011;55045;49.410;11.030;2023-09-19T09:19:21;2.05;;;1.70;;
68225;SDS011;55045;49.410;11.030;2023-09-19T09:22:26;1.60;;;1.50;;
68225;SDS011;55045;49.410;11.030;2023-09-19T09:25:50;2.13;;;1.60;;
68225;SDS011;55045;49.410;11.030;2023-09-19T09:28:59;3.60;;;1.50;;
68225;SDS011;55045;49.410;11.030;2023-09-19T09:34:16;4.18;;;2.00;;
68225;SDS011;55045;49.410;11.030;2023-09-19T09:37:21;1.80;;;1.70;;
68225;SDS011;55045;49.410;11.030;2023-09-19T09:40:25;4.32;;;1.75;;
68225;SDS011;55045;49.410;11.030;2023-09-19T09:43:49;2.97;;;1.77;;
68225;SDS011;55045;49.410;11.030;2023-09-19T09:46:53;2.78;;;1.80;;
68225;SDS011;55045;49.410;11.030;2023-09-19T09:50:24;2.17;;;1.73;;
68225;SDS011;55045;49.410;11.030;2023-09-19T09:53:31;2.20;;;1.70;;
68225;SDS011;55045;49.410;11.030;2023-09-19T09:56:34;3.83;;;1.80;;
68225;SDS011;55045;49.410;11.030;2023-09-19T09:59:56;2.78;;;1.70;;
68225;SDS011;55045;49.410;11.030;2023-09-19T10:03:01;3.20;;;1.60;;
68225;SDS011;55045;49.410;11.030;2023-09-19T10:06:08;4.50;;;1.88;;
68225;SDS011;55045;49.410;11.030;2023-09-19T10:09:29;6.75;;;2.10;;
68225;SDS011;55045;49.410;11.030;2023-09-19T10:12:38;2.20;;;1.65;;
68225;SDS011;55045;49.410;11.030;2023-09-19T10:15:47;3.05;;;1.98;;
68225;SDS011;55045;49.410;11.030;2023-09-19T10:18:54;4.73;;;2.00;;
68225;SDS011;55045;49.410;11.030;2023-09-19T10:22:02;3.55;;;1.90;;
68225;SDS011;55045;49.410;11.030;2023-09-19T10:25:07;1.90;;;1.67;;
68225;SDS011;55045;49.410;11.030;2023-09-19T10:28:12;2.38;;;1.70;;
68225;SDS011;55045;49.410;11.030;2023-09-19T10:31:17;2.05;;;1.60;;
68225;SDS011;55045;49.410;11.030;2023-09-19T10:34:25;2.25;;;2.05;;
68225;SDS011;55045;49.410;11.030;2023-09-19T10:37:36;3.00;;;1.90;;
68225;SDS011;55045;49.410;11.030;2023-09-19T10:40:41;2.75;;;1.88;;
68225;SDS011;55045;49.410;11.030;2023-09-19T10:43:45;5.32;;;1.70;;
68225;SDS011;55045;49.410;11.030;2023-09-19T10:46:51;3.05;;;2.15;;
68225;SDS011;55045;49.410;11.030;2023-09-19T10:49:58;4.07;;;1.92;;
68225;SDS011;55045;49.410;11.030;2023-09-19T10:53:06;3.20;;;2.28;;
68225;SDS011;55045;49.410;11.030;2023-09-19T10:56:15;2.72;;;1.92;;
68225;SDS011;55045;49.410;11.030;2023-09-19T10:59:22;4.57;;;1.90;;
68225;SDS011;55045;49.410;11.030;2023-09-19T11:02:26;2.67;;;1.63;;
68225;SDS011;55045;49.410;11.030;2023-09-19T11:05:30;1.75;;;1.65;;
68225;SDS011;55045;49.410;11.030;2023-09-19T11:12:08;5.70;;;1.80;;
68225;SDS011;55045;49.410;11.030;2023-09-19T11:16:02;2.35;;;1.50;;
68225;SDS011;55045;49.410;11.030;2023-09-19T11:18:54;3.05;;;1.55;;
68225;SDS011;55045;49.410;11.030;2023-09-19T11:21:57;1.60;;;1.50;;
68225;SDS011;55045;49.410;11.030;2023-09-19T11:28:42;6.05;;;1.90;;
68225;SDS011;55045;49.410;11.030;2023-09-19T11:31:45;1.52;;;1.38;;
68225;SDS011;55045;49.410;11.030;2023-09-19T11:34:52;1.73;;;1.43;;
68225;SDS011;55045;49.410;11.030;2023-09-19T11:38:13;1.52;;;1.42;;
68225;SDS011;55045;49.410;11.030;2023-09-19T11:41:37;2.80;;;1.60;;
68225;SDS011;55045;49.410;11.030;2023-09-19T11:44:50;2.53;;;1.40;;
68225;SDS011;55045;49.410;11.030;2023-09-19T11:47:55;3.03;;;1.42;;
68225;SDS011;55045;49.410;11.030;2023-09-19T11:51:01;2.28;;;1.35;;
68225;SDS011;55045;49.410;11.030;2023-09-19T11:54:10;2.28;;;1.30;;
68225;SDS011;55045;49.410;11.030;2023-09-19T11:57:20;2.63;;;1.60;;
68225;SDS011;55045;49.410;11.030;2023-09-19T12:00:28;3.97;;;1.45;;
68225;SDS011;55045;49.410;11.030;2023-09-19T12:03:35;2.67;;;1.60;;
68225;SDS011;55045;49.410;11.030;2023-09-19T12:06:46;4.00;;;1.70;;
68225;SDS011;55045;49.410;11.030;2023-09-19T12:10:06;2.95;;;1.75;;
68225;SDS011;55045;49.410;11.030;2023-09-19T12:13:15;3.58;;;1.83;;
68225;SDS011;55045;49.410;11.030;2023-09-19T12:16:21;2.83;;;1.60;;
68225;SDS011;55045;49.410;11.030;2023-09-19T12:19:25;2.95;;;1.63;;
68225;SDS011;55045;49.410;11.030;2023-09-19T12:22:38;1.70;;;1.60;;
68225;SDS011;55045;49.410;11.030;2023-09-19T12:25:42;3.50;;;1.80;;
68225;SDS011;55045;49.410;11.030;2023-09-19T12:28:48;3.20;;;1.80;;
68225;SDS011;55045;49.410;11.030;2023-09-19T12:31:56;3.22;;;1.60;;
68225;SDS011;55045;49.410;11.030;2023-09-19T12:35:08;3.35;;;1.60;;
68225;SDS011;55045;49.410;11.030;2023-09-19T12:38:22;3.00;;;1.90;;
68225;SDS011;55045;49.410;11.030;2023-09-19T12:41:26;6.18;;;1.55;;
68225;SDS011;55045;49.410;11.030;2023-09-19T12:44:30;4.03;;;1.60;;
68225;SDS011;55045;49.410;11.030;2023-09-19T12:47:39;3.30;;;1.50;;
68225;SDS011;55045;49.410;11.030;2023-09-19T12:51:01;2.97;;;1.80;;
68225;SDS011;55045;49.410;11.030;2023-09-19T12:54:08;1.85;;;1.63;;
68225;SDS011;55045;49.410;11.030;2023-09-19T12:57:22;3.55;;;1.65;;
68225;SDS011;55045;49.410;11.030;2023-09-19T13:00:33;3.97;;;1.50;;
68225;SDS011;55045;49.410;11.030;2023-09-19T13:03:39;3.22;;;1.60;;
68225;SDS011;55045;49.410;11.030;2023-09-19T13:06:46;1.70;;;1.40;;
68225;SDS011;55045;49.410;11.030;2023-09-19T13:10:04;3.22;;;1.70;;
68225;SDS011;55045;49.410;11.030;2023-09-19T13:13:23;2.60;;;1.65;;
68225;SDS011;55045;49.410;11.030;2023-09-19T13:16:31;2.58;;;1.65;;
68225;SDS011;55045;49.410;11.030;2023-09-19T13:19:42;4.55;;;1.52;;
68225;SDS011;55045;49.410;11.030;2023-09-19T13:22:54;3.40;;;1.60;;
68225;SDS011;55045;49.410;11.030;2023-09-19T13:26:02;2.53;;;1.58;;
68225;SDS011;55045;49.410;11.030;2023-09-19T13:29:07;5.53;;;1.83;;
68225;SDS011;55045;49.410;11.030;2023-09-19T13:32:10;2.42;;;1.65;;
68225;SDS011;55045;49.410;11.030;2023-09-19T13:35:15;6.30;;;1.52;;
68225;SDS011;55045;49.410;11.030;2023-09-19T13:38:19;3.30;;;1.63;;
68225;SDS011;55045;49.410;11.030;2023-09-19T13:41:24;3.10;;;1.60;;
68225;SDS011;55045;49.410;11.030;2023-09-19T13:44:28;4.80;;;1.92;;
68225;SDS011;55045;49.410;11.030;2023-09-19T13:47:32;3.08;;;1.58;;
68225;SDS011;55045;49.410;11.030;2023-09-19T13:50:37;2.42;;;1.55;;
68225;SDS011;55045;49.410;11.030;2023-09-19T13:53:43;2.45;;;1.60;;
68225;SDS011;55045;49.410;11.030;2023-09-19T13:56:47;3.28;;;1.92;;
68225;SDS011;55045;49.410;11.030;2023-09-19T13:59:50;2.47;;;1.60;;
68225;SDS011;55045;49.410;11.030;2023-09-19T14:02:55;3.90;;;1.92;;
68225;SDS011;55045;49.410;11.030;2023-09-19T14:06:00;2.97;;;1.58;;
68225;SDS011;55045;49.410;11.030;2023-09-19T14:09:03;3.05;;;1.40;;
68225;SDS011;55045;49.410;11.030;2023-09-19T14:12:07;1.92;;;1.40;;
68225;SDS011;55045;49.410;11.030;2023-09-19T14:15:11;3.63;;;1.48;;
68225;SDS011;55045;49.410;11.030;2023-09-19T14:18:15;3.88;;;1.60;;
68225;SDS011;55045;49.410;11.030;2023-09-19T14:21:21;1.83;;;1.50;;
68225;SDS011;55045;49.410;11.030;2023-09-19T14:24:25;3.67;;;1.70;;
68225;SDS011;55045;49.410;11.030;2023-09-19T14:27:28;4.72;;;1.48;;
68225;SDS011;55045;49.410;11.030;2023-09-19T14:30:31;2.42;;;1.40;;
68225;SDS011;55045;49.410;11.030;2023-09-19T14:33:35;2.08;;;1.50;;
68225;SDS011;55045;49.410;11.030;2023-09-19T14:36:41;2.05;;;1.65;;
68225;SDS011;55045;49.410;11.030;2023-09-19T14:39:44;3.28;;;1.40;;
68225;SDS011;55045;49.410;11.030;2023-09-19T14:42:47;2.83;;;1.48;;
68225;SDS011;55045;49.410;11.030;2023-09-19T14:45:53;2.65;;;2.00;;
68225;SDS011;55045;49.410;11.030;2023-09-19T14:48:57;3.30;;;1.70;;
68225;SDS011;55045;49.410;11.030;2023-09-19T14:52:03;5.35;;;1.90;;
68225;SDS011;55045;49.410;11.030;2023-09-19T14:55:06;2.63;;;1.40;;
68225;SDS011;55045;49.410;11.030;2023-09-19T14:58:16;3.65;;;1.48;;
68225;SDS011;55045;49.410;11.030;2023-09-19T15:01:19;2.85;;;1.48;;
68225;SDS011;55045;49.410;11.030;2023-09-19T15:04:24;2.45;;;1.33;;
68225;SDS011;55045;49.410;11.030;2023-09-19T15:07:28;4.43;;;1.60;;
68225;SDS011;55045;49.410;11.030;2023-09-19T15:10:32;1.88;;;1.60;;
68225;SDS011;55045;49.410;11.030;2023-09-19T15:13:35;4.15;;;1.60;;
68225;SDS011;55045;49.410;11.030;2023-09-19T15:16:39;2.92;;;1.73;;
68225;SDS011;55045;49.410;11.030;2023-09-19T15:19:45;3.38;;;1.48;;
68225;SDS011;55045;49.410;11.030;2023-09-19T15:22:50;1.55;;;1.45;;
68225;SDS011;55045;49.410;11.030;2023-09-19T15:25:54;1.88;;;1.48;;
68225;SDS011;55045;49.410;11.030;2023-09-19T15:28:58;4.43;;;1.30;;
68225;SDS011;55045;49.410;11.030;2023-09-19T15:34:16;1.50;;;1.40;;
68225;SDS011;55045;49.410;11.030;2023-09-19T15:37:19;1.65;;;1.55;;
68225;SDS011;55045;49.410;11.030;2023-09-19T15:40:24;1.60;;;1.50;;
68225;SDS011;55045;49.410;11.030;2023-09-19T15:43:30;3.00;;;1.35;;
68225;SDS011;55045;49.410;11.030;2023-09-19T15:46:35;3.60;;;1.40;;
68225;SDS011;55045;49.410;11.030;2023-09-19T15:49:40;1.40;;;1.30;;
68225;SDS011;55045;49.410;11.030;2023-09-19T15:52:43;1.75;;;1.45;;
68225;SDS011;55045;49.410;11.030;2023-09-19T15:55:47;2.22;;;1.30;;
68225;SDS011;55045;49.410;11.030;2023-09-19T15:58:51;2.75;;;1.33;;
68225;SDS011;55045;49.410;11.030;2023-09-19T16:01:55;2.55;;;1.48;;
68225;SDS011;55045;49.410;11.030;2023-09-19T16:05:01;1.90;;;1.30;;
68225;SDS011;55045;49.410;11.030;2023-09-19T16:11:10;7.45;;;1.50;;
68225;SDS011;55045;49.410;11.030;2023-09-19T16:14:14;2.28;;;1.63;;
68225;SDS011;55045;49.410;11.030;2023-09-19T16:17:19;1.83;;;1.33;;
68225;SDS011;55045;49.410;11.030;2023-09-19T16:20:23;2.63;;;1.40;;
68225;SDS011;55045;49.410;11.030;2023-09-19T16:23:26;1.58;;;1.30;;
68225;SDS011;55045;49.410;11.030;2023-09-19T16:26:30;3.03;;;1.67;;
68225;SDS011;55045;49.410;11.030;2023-09-19T16:29:33;2.20;;;1.42;;
68225;SDS011;55045;49.410;11.030;2023-09-19T16:32:36;2.15;;;1.40;;
68225;SDS011;55045;49.410;11.030;2023-09-19T16:35:41;2.90;;;1.20;;
68225;SDS011;55045;49.410;11.030;2023-09-19T16:38:45;3.25;;;1.30;;
68225;SDS011;55045;49.410;11.030;2023-09-19T16:41:49;2.67;;;1.42;;
68225;SDS011;55045;49.410;11.030;2023-09-19T16:44:53;1.98;;;1.40;;
68225;SDS011;55045;49.410;11.030;2023-09-19T16:47:56;3.55;;;1.80;;
68225;SDS011;55045;49.410;11.030;2023-09-19T16:51:01;2.97;;;1.70;;
68225;SDS011;55045;49.410;11.030;2023-09-19T16:54:06;5.07;;;1.58;;
68225;SDS011;55045;49.410;11.030;2023-09-19T16:57:09;2.30;;;1.60;;
68225;SDS011;55045;49.410;11.030;2023-09-19T17:00:13;2.30;;;1.60;;
68225;SDS011;55045;49.410;11.030;2023-09-19T17:03:19;1.70;;;1.50;;
68225;SDS011;55045;49.410;11.030;2023-09-19T17:06:24;3.13;;;1.70;;
68225;SDS011;55045;49.410;11.030;2023-09-19T17:09:28;2.08;;;1.92;;
68225;SDS011;55045;49.410;11.030;2023-09-19T17:12:31;3.83;;;1.80;;
68225;SDS011;55045;49.410;11.030;2023-09-19T17:15:35;4.30;;;2.63;;
68225;SDS011;55045;49.410;11.030;2023-09-19T17:18:38;4.75;;;3.53;;
68225;SDS011;55045;49.410;11.030;2023-09-19T17:21:46;4.33;;;3.90;;
68225;SDS011;55045;49.410;11.030;2023-09-19T17:24:50;3.63;;;3.05;;
68225;SDS011;55045;49.410;11.030;2023-09-19T17:27:53;6.40;;;2.90;;
68225;SDS011;55045;49.410;11.030;2023-09-19T17:30:56;4.00;;;2.30;;
68225;SDS011;55045;49.410;11.030;2023-09-19T17:33:59;6.25;;;2.83;;
68225;SDS011;55045;49.410;11.030;2023-09-19T17:37:04;2.92;;;2.42;;
68225;SDS011;55045;49.410;11.030;2023-09-19T17:40:10;3.40;;;2.05;;
68225;SDS011;55045;49.410;11.030;2023-09-19T17:43:15;5.05;;;2.30;;
68225;SDS011;55045;49.410;11.030;2023-09-19T17:46:19;5.68;;;3.10;;
68225;SDS011;55045;49.410;11.030;2023-09-19T17:49:23;6.20;;;3.50;;
68225;SDS011;55045;49.410;11.030;2023-09-19T17:52:27;3.33;;;2.05;;
68225;SDS011;55045;49.410;11.030;2023-09-19T17:55:31;2.50;;;2.05;;
68225;SDS011;55045;49.410;11.030;2023-09-19T17:58:40;2.90;;;2.13;;
68225;SDS011;55045;49.410;11.030;2023-09-19T18:01:45;4.00;;;2.03;;
68225;SDS011;55045;49.410;11.030;2023-09-19T18:04:49;3.15;;;2.17;;
68225;SDS011;55045;49.410;11.030;2023-09-19T18:07:54;4.38;;;3.20;;
68225;SDS011;55045;49.410;11.030;2023-09-19T18:10:57;7.47;;;3.55;;
68225;SDS011;55045;49.410;11.030;2023-09-19T18:14:02;6.70;;;4.10;;
68225;SDS011;55045;49.410;11.030;2023-09-19T18:17:05;6.15;;;3.20;;
68225;SDS011;55045;49.410;11.030;2023-09-19T18:20:11;4.72;;;2.97;;
68225;SDS011;55045;49.410;11.030;2023-09-19T18:23:18;4.82;;;3.95;;
68225;SDS011;55045;49.410;11.030;2023-09-19T18:26:22;4.25;;;3.10;;
68225;SDS011;55045;49.410;11.030;2023-09-19T18:29:26;6.63;;;3.72;;
68225;SDS011;55045;49.410;11.030;2023-09-19T18:32:29;6.03;;;3.17;;
68225;SDS011;55045;49.410;11.030;2023-09-19T18:35:32;4.82;;;2.70;;
68225;SDS011;55045;49.410;11.030;2023-09-19T18:38:41;4.72;;;3.30;;